createdAt,value
2022-09-02T00:02:29.410Z,16.28
2022-09-02T00:04:57.902Z,16.26
2022-09-02T00:07:26.365Z,16.24
2022-09-02T00:09:54.881Z,16.20
2022-09-02T00:12:23.329Z,16.19
2022-09-02T00:14:51.696Z,16.16
2022-09-02T00:17:20.046Z,16.12
2022-09-02T00:19:50.974Z,16.09
2022-09-02T00:22:22.484Z,16.07
2022-09-02T00:24:50.896Z,16.03
2022-09-02T00:27:19.280Z,16.03
2022-09-02T00:29:48.533Z,16.02
2022-09-02T00:32:16.961Z,16.00
2022-09-02T00:34:45.732Z,15.97
2022-09-02T00:37:14.197Z,15.95
2022-09-02T00:39:42.854Z,15.92
2022-09-02T00:42:19.670Z,15.91
2022-09-02T00:44:48.469Z,15.90
2022-09-02T00:47:17.834Z,15.86
2022-09-02T00:49:52.551Z,15.85
2022-09-02T00:52:29.988Z,15.83
2022-09-02T00:55:05.686Z,15.84
2022-09-02T00:57:39.527Z,15.82
2022-09-02T01:00:22.245Z,15.82
2022-09-02T01:02:56.925Z,15.80
2022-09-02T01:05:29.992Z,15.79
2022-09-02T01:07:59.261Z,15.77
2022-09-02T01:10:34.476Z,15.75
2022-09-02T01:13:07.619Z,15.71
2022-09-02T01:15:40.969Z,15.71
2022-09-02T01:18:13.800Z,15.67
2022-09-02T01:20:42.749Z,15.67
2022-09-02T01:23:11.949Z,15.65
2022-09-02T01:25:40.557Z,15.62
2022-09-02T01:28:11.533Z,15.59
2022-09-02T01:30:47.679Z,15.55
2022-09-02T01:33:17.549Z,15.54
2022-09-02T01:35:47.174Z,15.51
2022-09-02T01:38:16.067Z,15.49
2022-09-02T01:40:44.771Z,15.46
2022-09-02T01:43:21.437Z,15.43
2022-09-02T01:45:54.648Z,15.40
2022-09-02T01:48:25.585Z,15.38
2022-09-02T01:51:01.988Z,15.38
2022-09-02T01:53:30.941Z,15.35
2022-09-02T01:56:00.632Z,15.32
2022-09-02T01:58:32.355Z,15.30
2022-09-02T02:01:00.922Z,15.26
2022-09-02T02:03:30.834Z,15.24
2022-09-02T02:06:00.827Z,15.23
2022-09-02T02:08:30.432Z,15.20
2022-09-02T02:11:01.332Z,15.19
2022-09-02T02:13:31.288Z,15.17
2022-09-02T02:15:59.974Z,15.16
2022-09-02T02:18:29.863Z,15.14
2022-09-02T02:20:58.150Z,15.12
2022-09-02T02:23:26.688Z,15.10
2022-09-02T02:25:55.033Z,15.08
2022-09-02T02:28:23.353Z,15.06
2022-09-02T02:30:51.799Z,15.05
2022-09-02T02:33:30.485Z,15.02
2022-09-02T02:36:07.504Z,14.97
2022-09-02T02:38:38.016Z,14.95
2022-09-02T02:41:08.321Z,14.93
2022-09-02T02:43:37.665Z,14.90
2022-09-02T02:46:07.123Z,14.88
2022-09-02T02:48:36.619Z,14.87
2022-09-02T02:51:06.314Z,14.86
2022-09-02T02:53:37.005Z,14.84
2022-09-02T02:56:06.066Z,14.82
2022-09-02T02:58:34.789Z,14.80
2022-09-02T03:01:03.620Z,14.77
2022-09-02T03:03:32.633Z,14.77
2022-09-02T03:06:02.934Z,14.76
2022-09-02T03:08:32.090Z,14.75
2022-09-02T03:11:01.861Z,14.74
2022-09-02T03:13:32.912Z,14.74
2022-09-02T03:16:04.115Z,14.70
2022-09-02T03:18:34.852Z,14.69
2022-09-02T03:21:08.241Z,14.70
2022-09-02T03:23:37.119Z,14.70
2022-09-02T03:26:11.123Z,14.70
2022-09-02T03:28:40.449Z,14.70
2022-09-02T03:31:18.611Z,14.68
2022-09-02T03:33:47.675Z,14.64
2022-09-02T03:36:32.433Z,14.63
2022-09-02T03:39:02.067Z,14.61
2022-09-02T03:41:31.246Z,14.60
2022-09-02T03:44:02.107Z,14.60
2022-09-02T03:46:31.587Z,14.60
2022-09-02T03:49:00.244Z,14.58
2022-09-02T03:51:28.990Z,14.58
2022-09-02T03:53:57.746Z,14.57
2022-09-02T03:56:27.360Z,14.55
2022-09-02T03:58:57.528Z,14.53
2022-09-02T04:01:29.083Z,14.52
2022-09-02T04:04:06.864Z,14.50
2022-09-02T04:06:37.664Z,14.48
2022-09-02T04:09:07.953Z,14.46
2022-09-02T04:11:42.841Z,14.43
2022-09-02T04:14:13.843Z,14.40
2022-09-02T04:16:42.498Z,14.38
2022-09-02T04:19:11.088Z,14.38
2022-09-02T04:21:42.193Z,14.35
2022-09-02T04:24:11.881Z,14.33
2022-09-02T04:26:45.083Z,14.32
2022-09-02T04:29:15.810Z,14.32
2022-09-02T04:31:45.799Z,14.30
2022-09-02T04:34:14.381Z,14.29
2022-09-02T04:36:43.953Z,14.27
2022-09-02T04:39:13.848Z,14.24
2022-09-02T04:41:42.626Z,14.23
2022-09-02T04:44:13.510Z,14.23
2022-09-02T04:46:45.565Z,14.23
2022-09-02T04:49:19.669Z,14.23
2022-09-02T04:51:50.706Z,14.23
2022-09-02T04:54:19.294Z,14.21
2022-09-02T04:56:50.907Z,14.23
2022-09-02T04:59:21.348Z,14.24
2022-09-02T05:02:12.161Z,14.23
2022-09-02T05:04:41.671Z,14.22
2022-09-02T05:07:18.330Z,14.22
2022-09-02T05:09:50.416Z,14.23
2022-09-02T05:12:19.323Z,14.23
2022-09-02T05:14:53.913Z,14.27
2022-09-02T05:17:24.591Z,14.27
2022-09-02T05:19:53.386Z,14.29
2022-09-02T05:22:22.614Z,14.30
2022-09-02T05:24:51.434Z,14.32
2022-09-02T05:27:20.689Z,14.32
2022-09-02T05:29:50.982Z,14.34
2022-09-02T05:32:23.029Z,14.37
2022-09-02T05:34:54.218Z,14.38
2022-09-02T05:37:24.611Z,14.41
2022-09-02T05:39:53.227Z,14.43
2022-09-02T05:42:24.883Z,14.47
2022-09-02T05:44:53.952Z,14.51
2022-09-02T05:47:25.541Z,14.53
2022-09-02T05:49:54.894Z,14.55
2022-09-02T05:52:26.319Z,14.58
2022-09-02T05:54:56.960Z,14.59
2022-09-02T05:57:25.720Z,14.60
2022-09-02T06:00:08.537Z,14.62
2022-09-02T06:02:44.014Z,14.66
2022-09-02T06:05:27.546Z,14.68
2022-09-02T06:08:07.776Z,14.72
2022-09-02T06:10:42.292Z,14.74
2022-09-02T06:13:15.765Z,14.76
2022-09-02T06:15:45.112Z,14.80
2022-09-02T06:18:15.932Z,14.82
2022-09-02T06:20:51.304Z,14.86
2022-09-02T06:23:20.741Z,14.97
2022-09-02T06:25:50.664Z,15.06
2022-09-02T06:28:23.044Z,15.11
2022-09-02T06:30:51.825Z,15.13
2022-09-02T06:33:25.482Z,15.17
2022-09-02T06:35:55.246Z,15.21
2022-09-02T06:38:24.139Z,15.33
2022-09-02T06:40:55.660Z,15.40
2022-09-02T06:43:37.645Z,15.44
2022-09-02T06:46:24.001Z,15.50
2022-09-02T06:48:56.095Z,15.55
2022-09-02T06:51:29.611Z,15.67
2022-09-02T06:54:01.586Z,15.81
2022-09-02T06:56:35.024Z,15.91
2022-09-02T06:59:05.087Z,15.90
2022-09-02T07:01:54.421Z,15.93
2022-09-02T07:04:43.224Z,16.00
2022-09-02T07:07:16.316Z,16.08
2022-09-02T07:09:58.718Z,16.05
2022-09-02T07:12:27.866Z,16.18
2022-09-02T07:15:05.190Z,16.31
2022-09-02T07:17:38.418Z,16.52
2022-09-02T07:20:11.607Z,16.71
2022-09-02T07:22:45.623Z,16.75
2022-09-02T07:25:18.725Z,16.83
2022-09-02T07:27:51.349Z,16.89
2022-09-02T07:30:20.618Z,16.79
2022-09-02T07:32:53.865Z,16.76
2022-09-02T07:35:25.122Z,16.72
2022-09-02T07:37:55.316Z,16.70
2022-09-02T07:40:24.598Z,16.70
2022-09-02T07:42:54.564Z,16.67
2022-09-02T07:45:24.668Z,16.66
2022-09-02T07:47:54.086Z,16.72
2022-09-02T07:50:27.261Z,16.84
2022-09-02T07:52:58.372Z,16.92
2022-09-02T07:55:31.173Z,17.04
2022-09-02T07:58:01.015Z,17.17
2022-09-02T08:00:32.230Z,17.29
2022-09-02T08:05:41.343Z,17.39
2022-09-02T08:08:09.733Z,17.44
2022-09-02T08:10:38.694Z,17.53
2022-09-02T08:13:07.083Z,17.57
2022-09-02T08:15:37.050Z,17.75
2022-09-02T08:18:06.886Z,17.98
2022-09-02T08:20:37.094Z,18.27
2022-09-02T08:23:12.415Z,18.46
2022-09-02T08:25:47.013Z,18.62
2022-09-02T08:28:15.381Z,18.72
2022-09-02T08:30:43.698Z,18.83
2022-09-02T08:33:12.375Z,18.92
2022-09-02T08:35:40.890Z,18.99
2022-09-02T08:38:09.229Z,19.03
2022-09-02T08:40:42.050Z,19.10
2022-09-02T08:43:21.714Z,19.18
2022-09-02T08:45:51.851Z,19.28
2022-09-02T08:48:27.997Z,19.18
2022-09-02T08:51:03.456Z,19.12
2022-09-02T08:54:03.359Z,19.20
2022-09-02T08:56:32.353Z,19.24
2022-09-02T08:59:04.938Z,19.30
2022-09-02T09:01:47.630Z,19.33
2022-09-02T09:04:53.614Z,19.30
2022-09-02T09:07:33.004Z,19.34
2022-09-02T09:10:16.747Z,19.46
2022-09-02T09:13:20.435Z,19.71
2022-09-02T09:16:16.579Z,19.77
2022-09-02T09:18:55.813Z,19.86
2022-09-02T09:23:55.724Z,19.91
2022-09-02T09:26:31.048Z,19.97
2022-09-02T09:29:00.025Z,20.09
2022-09-02T09:31:31.460Z,20.19
2022-09-02T09:34:07.537Z,20.15
2022-09-02T09:36:42.226Z,20.05
2022-09-02T09:39:28.246Z,20.00
2022-09-02T09:42:12.381Z,20.10
2022-09-02T09:44:48.183Z,20.25
2022-09-02T09:47:25.774Z,20.29
2022-09-02T09:50:16.377Z,20.38
2022-09-02T09:52:45.461Z,20.51
2022-09-02T09:55:15.674Z,20.58
2022-09-02T09:57:51.448Z,20.66
2022-09-02T10:00:32.573Z,20.74
2022-09-02T10:03:04.581Z,20.78
2022-09-02T10:05:38.962Z,20.78
2022-09-02T10:08:16.570Z,20.76
2022-09-02T10:11:06.363Z,20.90
2022-09-02T10:13:37.004Z,21.01
2022-09-02T10:16:13.179Z,21.05
2022-09-02T10:18:54.915Z,21.14
2022-09-02T10:21:50.546Z,21.22
2022-09-02T10:24:36.430Z,21.27
2022-09-02T10:27:09.486Z,21.38
2022-09-02T10:29:56.143Z,21.48
2022-09-02T10:32:39.625Z,21.51
2022-09-02T10:35:15.032Z,21.49
2022-09-02T10:38:12.356Z,21.51
2022-09-02T10:40:52.865Z,21.48
2022-09-02T10:43:44.146Z,21.49
2022-09-02T10:46:18.459Z,21.65
2022-09-02T10:49:01.694Z,21.75
2022-09-02T10:54:34.235Z,22.05
2022-09-02T10:57:12.860Z,22.09
2022-09-02T10:59:52.482Z,22.09
2022-09-02T11:02:22.731Z,22.15
2022-09-02T11:05:00.744Z,22.19
2022-09-02T11:07:37.813Z,22.29
2022-09-02T11:10:16.275Z,22.39
2022-09-02T11:12:54.960Z,22.45
2022-09-02T11:15:48.798Z,22.59
2022-09-02T11:18:21.592Z,22.65
2022-09-02T11:21:30.508Z,22.60
2022-09-02T11:24:10.299Z,22.54
2022-09-02T11:27:32.295Z,22.54
2022-09-02T11:30:13.611Z,22.56
2022-09-02T11:33:04.067Z,22.49
2022-09-02T11:35:38.770Z,22.53
2022-09-02T11:38:49.006Z,22.44
2022-09-02T11:41:35.828Z,22.34
2022-09-02T11:44:24.290Z,22.39
2022-09-02T11:47:25.306Z,22.37
2022-09-02T11:50:05.857Z,22.42
2022-09-02T11:52:34.115Z,22.42
2022-09-02T11:55:14.021Z,22.48
2022-09-02T11:57:52.439Z,22.55
2022-09-02T12:00:38.864Z,22.68
2022-09-02T12:03:16.832Z,22.77
2022-09-02T12:06:19.302Z,22.72
2022-09-02T12:08:57.182Z,22.64
2022-09-02T12:11:42.190Z,22.68
2022-09-02T12:14:21.466Z,22.65
2022-09-02T12:17:07.583Z,22.63
2022-09-02T12:19:40.544Z,22.58
2022-09-02T12:22:15.700Z,22.66
2022-09-02T12:24:53.792Z,22.80
2022-09-02T12:27:27.330Z,22.89
2022-09-02T12:29:57.623Z,22.86
2022-09-02T12:32:45.330Z,22.87
2022-09-02T12:35:50.209Z,22.92
2022-09-02T12:38:25.600Z,22.94
2022-09-02T12:40:58.775Z,22.92
2022-09-02T12:43:33.484Z,22.90
2022-09-02T12:46:23.040Z,22.91
2022-09-02T12:49:05.739Z,22.90
2022-09-02T12:52:02.532Z,22.92
2022-09-02T12:54:39.875Z,22.81
2022-09-02T12:57:10.005Z,22.83
2022-09-02T12:59:41.369Z,22.81
2022-09-02T13:02:28.060Z,22.73
2022-09-02T13:05:19.861Z,22.81
2022-09-02T13:07:57.207Z,22.86
2022-09-02T13:10:58.342Z,22.91
2022-09-02T13:14:08.506Z,23.02
2022-09-02T13:17:19.064Z,23.09
2022-09-02T13:19:56.761Z,23.19
2022-09-02T13:22:31.103Z,23.28
2022-09-02T13:25:02.639Z,23.38
2022-09-02T13:28:04.968Z,23.50
2022-09-02T13:30:51.590Z,23.53
2022-09-02T13:33:20.074Z,23.55
2022-09-02T13:35:54.437Z,23.57
2022-09-02T13:38:25.400Z,23.60
2022-09-02T13:40:54.111Z,23.63
2022-09-02T13:43:27.118Z,23.67
2022-09-02T13:46:01.020Z,23.72
2022-09-02T13:48:33.078Z,23.81
2022-09-02T13:51:14.282Z,23.79
2022-09-02T13:54:21.538Z,23.81
2022-09-02T13:56:39.746Z,23.90
2022-09-02T13:59:08.079Z,23.86
2022-09-02T14:01:40.273Z,23.81
2022-09-02T14:04:15.675Z,23.75
2022-09-02T14:06:47.622Z,23.70
2022-09-02T14:09:27.235Z,23.69
2022-09-02T14:11:56.907Z,23.67
2022-09-02T14:14:26.137Z,23.65
2022-09-02T14:17:18.102Z,23.59
2022-09-02T14:19:46.733Z,23.58
2022-09-02T14:22:27.599Z,23.57
2022-09-02T14:24:56.837Z,23.60
2022-09-02T14:27:25.661Z,23.63
2022-09-02T14:29:58.329Z,23.65
2022-09-02T14:32:28.189Z,23.67
2022-09-02T14:35:11.704Z,23.65
2022-09-02T14:37:54.089Z,23.62
2022-09-02T14:40:34.022Z,23.50
2022-09-02T14:43:03.491Z,23.49
2022-09-02T14:45:34.935Z,23.48
2022-09-02T14:48:13.716Z,23.51
2022-09-02T14:50:42.587Z,23.47
2022-09-02T14:53:19.826Z,23.47
2022-09-02T14:55:56.954Z,23.48
2022-09-02T14:58:28.161Z,23.45
2022-09-02T15:01:00.054Z,23.42
2022-09-02T15:03:30.632Z,23.39
2022-09-02T15:05:59.675Z,23.37
2022-09-02T15:08:27.905Z,23.32
2022-09-02T15:10:59.874Z,23.27
2022-09-02T15:13:37.251Z,23.23
2022-09-02T15:16:05.861Z,23.20
2022-09-02T15:18:34.200Z,23.12
2022-09-02T15:21:03.346Z,23.06
2022-09-02T15:23:34.802Z,22.98
2022-09-02T15:26:05.234Z,22.89
2022-09-02T15:28:34.033Z,22.85
2022-09-02T15:31:02.764Z,22.83
2022-09-02T15:33:32.357Z,22.83
2022-09-02T15:36:09.910Z,22.80
2022-09-02T15:38:40.963Z,22.75
2022-09-02T15:41:12.860Z,22.76
2022-09-02T15:43:41.911Z,22.74
2022-09-02T15:46:18.945Z,22.72
2022-09-02T15:48:47.981Z,22.69
2022-09-02T15:51:19.020Z,22.67
2022-09-02T15:53:49.211Z,22.66
2022-09-02T15:56:19.788Z,22.65
2022-09-02T15:58:58.000Z,22.65
2022-09-02T16:01:32.170Z,22.66
2022-09-02T16:04:06.135Z,22.65
2022-09-02T16:06:36.449Z,22.64
2022-09-02T16:09:08.992Z,22.64
2022-09-02T16:11:42.107Z,22.65
2022-09-02T16:14:10.874Z,22.64
2022-09-02T16:16:39.607Z,22.62
2022-09-02T16:19:09.086Z,22.62
2022-09-02T16:21:41.412Z,22.60
2022-09-02T16:24:12.815Z,22.56
2022-09-02T16:26:42.277Z,22.53
2022-09-02T16:29:19.557Z,22.51
2022-09-02T16:32:02.238Z,22.47
2022-09-02T16:34:38.102Z,22.43
2022-09-02T16:37:07.545Z,22.39
2022-09-02T16:39:36.256Z,22.37
2022-09-02T16:42:04.995Z,22.35
2022-09-02T16:44:34.224Z,22.31
2022-09-02T16:47:02.726Z,22.27
2022-09-02T16:49:31.921Z,22.22
2022-09-02T16:52:00.774Z,22.18
2022-09-02T16:54:31.419Z,22.13
2022-09-02T16:57:01.357Z,22.10
2022-09-02T16:59:31.633Z,22.07
2022-09-02T17:02:00.134Z,22.05
2022-09-02T17:04:29.466Z,22.01
2022-09-02T17:06:58.082Z,21.97
2022-09-02T17:09:26.345Z,21.94
2022-09-02T17:11:54.768Z,21.91
2022-09-02T17:14:23.261Z,21.89
2022-09-02T17:16:52.389Z,21.85
2022-09-02T17:19:21.791Z,21.84
2022-09-02T17:21:54.955Z,21.78
2022-09-02T17:24:27.954Z,21.76
2022-09-02T17:26:56.715Z,21.73
2022-09-02T17:29:48.822Z,21.70
2022-09-02T17:32:19.327Z,21.67
2022-09-02T17:34:49.927Z,21.64
2022-09-02T17:37:19.414Z,21.61
2022-09-02T17:39:51.060Z,21.56
2022-09-02T17:42:21.559Z,21.53
2022-09-02T17:44:49.932Z,21.49
2022-09-02T17:47:20.776Z,21.46
2022-09-02T17:49:49.547Z,21.42
2022-09-02T17:52:27.129Z,21.37
2022-09-02T17:54:56.100Z,21.32
2022-09-02T17:57:42.440Z,21.28
2022-09-02T18:00:17.283Z,21.23
2022-09-02T18:03:22.603Z,21.18
2022-09-02T18:06:09.427Z,21.13
2022-09-02T18:08:54.646Z,21.09
2022-09-02T18:11:23.093Z,21.05
2022-09-02T18:14:04.374Z,21.01
2022-09-02T18:16:39.222Z,20.96
2022-09-02T18:19:21.997Z,20.91
2022-09-02T18:21:58.835Z,20.87
2022-09-02T18:24:48.886Z,20.82
2022-09-02T18:27:36.850Z,20.77
2022-09-02T18:30:08.187Z,20.74
2022-09-02T18:32:52.016Z,20.67
2022-09-02T18:35:55.647Z,20.62
2022-09-02T18:39:02.748Z,20.54
2022-09-02T18:41:31.009Z,20.49
2022-09-02T18:44:36.154Z,20.43
2022-09-02T18:47:19.961Z,20.39
2022-09-02T18:49:50.939Z,20.37
2022-09-02T18:52:21.232Z,20.36
2022-09-02T18:55:00.672Z,20.34
2022-09-02T18:57:33.695Z,20.32
2022-09-02T19:00:07.661Z,20.31
2022-09-02T19:02:41.654Z,20.29
2022-09-02T19:05:18.963Z,20.27
2022-09-02T19:08:07.439Z,20.27
2022-09-02T19:10:35.967Z,20.24
2022-09-02T19:13:10.292Z,20.21
2022-09-02T19:15:39.713Z,20.21
2022-09-02T19:18:08.032Z,20.21
2022-09-02T19:20:37.836Z,20.19
2022-09-02T19:23:08.268Z,20.16
2022-09-02T19:25:38.706Z,20.15
2022-09-02T19:28:09.823Z,20.10
2022-09-02T19:30:40.530Z,20.06
2022-09-02T19:33:13.746Z,20.02
2022-09-02T19:35:49.007Z,19.96
2022-09-02T19:38:17.996Z,19.92
2022-09-02T19:40:49.536Z,19.89
2022-09-02T19:43:18.615Z,19.86
2022-09-02T19:45:51.311Z,19.84
2022-09-02T19:48:20.174Z,19.83
2022-09-02T19:50:49.003Z,19.82
2022-09-02T19:53:30.143Z,19.81
2022-09-02T19:56:01.741Z,19.81
2022-09-02T19:58:30.029Z,19.80
2022-09-02T20:00:59.280Z,19.78
2022-09-02T20:03:28.829Z,19.78
2022-09-02T20:05:57.315Z,19.76
2022-09-02T20:08:31.278Z,19.74
2022-09-02T20:11:02.418Z,19.74
2022-09-02T20:13:40.304Z,19.73
2022-09-02T20:16:22.381Z,19.71
2022-09-02T20:18:53.075Z,19.68
2022-09-02T20:21:27.554Z,19.67
2022-09-02T20:24:05.112Z,19.65
2022-09-02T20:27:10.605Z,19.63
2022-09-02T20:30:05.259Z,19.58
2022-09-02T20:32:51.837Z,19.57
2022-09-02T20:35:42.023Z,19.55
2022-09-02T20:38:48.473Z,19.54
2022-09-02T20:41:51.890Z,19.48
2022-09-02T20:44:24.631Z,19.45
2022-09-02T20:47:20.127Z,19.42
2022-09-02T20:50:00.208Z,19.40
2022-09-02T20:53:00.267Z,19.36
2022-09-02T20:55:40.146Z,19.34
2022-09-02T20:58:29.906Z,19.32
2022-09-02T21:01:08.244Z,19.27
2022-09-02T21:03:48.651Z,19.25
2022-09-02T21:06:19.050Z,19.21
2022-09-02T21:08:59.763Z,19.19
2022-09-02T21:11:34.563Z,19.17
2022-09-02T21:14:13.231Z,19.16
2022-09-02T21:16:48.024Z,19.16
2022-09-02T21:19:23.404Z,19.15
2022-09-02T21:22:39.277Z,19.13
2022-09-02T21:25:12.779Z,19.11
2022-09-02T21:28:01.932Z,19.09
2022-09-02T21:30:39.663Z,19.08
2022-09-02T21:33:15.995Z,19.03
2022-09-02T21:35:47.479Z,19.01
2022-09-02T21:38:42.531Z,18.98
2022-09-02T21:41:11.055Z,18.96
2022-09-02T21:44:02.425Z,18.92
2022-09-02T21:47:01.463Z,18.89
2022-09-02T21:50:08.014Z,18.85
2022-09-02T21:53:16.978Z,18.84
2022-09-02T21:56:37.170Z,18.80
2022-09-02T21:59:24.030Z,18.78
2022-09-02T22:01:58.517Z,18.75
2022-09-02T22:04:56.075Z,18.71
2022-09-02T22:07:42.046Z,18.67
2022-09-02T22:10:11.133Z,18.62
2022-09-02T22:12:47.754Z,18.57
2022-09-02T22:15:28.067Z,18.52
2022-09-02T22:18:16.794Z,18.45
2022-09-02T22:20:45.672Z,18.39
2022-09-02T22:23:26.225Z,18.34
2022-09-02T22:26:01.451Z,18.27
2022-09-02T22:29:04.022Z,18.21
2022-09-02T22:31:35.896Z,18.15
2022-09-02T22:34:07.611Z,18.10
2022-09-02T22:36:56.659Z,18.05
2022-09-02T22:39:33.972Z,18.01
2022-09-02T22:42:20.090Z,17.96
2022-09-02T22:45:48.691Z,17.88
2022-09-02T22:48:40.190Z,17.82
2022-09-02T22:51:38.785Z,17.79
2022-09-02T22:54:07.124Z,17.73
2022-09-02T22:57:13.978Z,17.69
2022-09-02T23:00:05.947Z,17.65
2022-09-02T23:03:00.408Z,17.58
2022-09-02T23:05:53.801Z,17.54
2022-09-02T23:08:22.646Z,17.50
2022-09-02T23:11:16.481Z,17.46
2022-09-02T23:14:09.224Z,17.41
2022-09-02T23:16:55.817Z,17.35
2022-09-02T23:19:43.745Z,17.32
2022-09-02T23:22:34.288Z,17.26
2022-09-02T23:25:47.704Z,17.21
2022-09-02T23:28:31.232Z,17.17
2022-09-02T23:31:33.251Z,17.09
2022-09-02T23:34:28.927Z,17.05
2022-09-02T23:37:26.893Z,17.00
2022-09-02T23:40:01.388Z,16.98
2022-09-02T23:42:30.412Z,16.95
2022-09-02T23:45:18.588Z,16.90
2022-09-02T23:47:54.685Z,16.86
2022-09-02T23:50:27.436Z,16.82
2022-09-02T23:53:09.101Z,16.80
2022-09-02T23:56:11.155Z,16.79
2022-09-02T23:59:16.962Z,16.76
